sensor_id;sensor_type;location;lat;lon;timestamp;P1;durP1;ratioP1;P2;durP2;ratioP2
19235;SDS011;9752;54.270;12.470;2022-08-24T00:03:56;15.23;;;10.67;;
19235;SDS011;9752;54.270;12.470;2022-08-24T00:08:59;18.83;;;11.90;;
19235;SDS011;9752;54.270;12.470;2022-08-24T00:14:01;16.90;;;11.27;;
19235;SDS011;9752;54.270;12.470;2022-08-24T00:19:03;24.10;;;14.90;;
19235;SDS011;9752;54.270;12.470;2022-08-24T00:24:07;20.07;;;13.93;;
19235;SDS011;9752;54.270;12.470;2022-08-24T00:29:08;21.77;;;14.50;;
19235;SDS011;9752;54.270;12.470;2022-08-24T00:34:10;23.37;;;14.20;;
19235;SDS011;9752;54.270;12.470;2022-08-24T00:39:14;20.53;;;13.63;;
19235;SDS011;9752;54.270;12.470;2022-08-24T00:44:17;20.47;;;14.10;;
19235;SDS011;9752;54.270;12.470;2022-08-24T00:49:22;25.93;;;16.97;;
19235;SDS011;9752;54.270;12.470;2022-08-24T00:54:28;25.17;;;16.73;;
19235;SDS011;9752;54.270;12.470;2022-08-24T00:59:35;32.93;;;16.20;;
19235;SDS011;9752;54.270;12.470;2022-08-24T01:04:41;23.43;;;14.27;;
19235;SDS011;9752;54.270;12.470;2022-08-24T01:09:49;20.67;;;13.07;;
19235;SDS011;9752;54.270;12.470;2022-08-24T01:14:51;20.43;;;13.80;;
19235;SDS011;9752;54.270;12.470;2022-08-24T01:19:55;20.90;;;13.97;;
19235;SDS011;9752;54.270;12.470;2022-08-24T01:25:00;120.90;;;23.60;;
19235;SDS011;9752;54.270;12.470;2022-08-24T01:30:03;37.77;;;20.77;;
19235;SDS011;9752;54.270;12.470;2022-08-24T01:35:08;41.53;;;21.90;;
19235;SDS011;9752;54.270;12.470;2022-08-24T01:40:13;40.67;;;22.23;;
19235;SDS011;9752;54.270;12.470;2022-08-24T01:45:16;124.93;;;27.17;;
19235;SDS011;9752;54.270;12.470;2022-08-24T01:50:19;40.13;;;20.87;;
19235;SDS011;9752;54.270;12.470;2022-08-24T01:55:22;29.90;;;18.47;;
19235;SDS011;9752;54.270;12.470;2022-08-24T02:00:24;64.93;;;23.10;;
19235;SDS011;9752;54.270;12.470;2022-08-24T02:05:27;42.30;;;19.80;;
19235;SDS011;9752;54.270;12.470;2022-08-24T02:10:30;21.23;;;14.97;;
19235;SDS011;9752;54.270;12.470;2022-08-24T02:15:33;29.30;;;16.93;;
19235;SDS011;9752;54.270;12.470;2022-08-24T02:20:40;20.40;;;13.80;;
19235;SDS011;9752;54.270;12.470;2022-08-24T02:25:43;22.40;;;13.03;;
19235;SDS011;9752;54.270;12.470;2022-08-24T02:30:46;23.00;;;14.27;;
19235;SDS011;9752;54.270;12.470;2022-08-24T02:35:48;31.47;;;16.63;;
19235;SDS011;9752;54.270;12.470;2022-08-24T02:40:51;25.23;;;15.43;;
19235;SDS011;9752;54.270;12.470;2022-08-24T02:45:53;23.57;;;13.93;;
19235;SDS011;9752;54.270;12.470;2022-08-24T02:50:56;21.13;;;13.60;;
19235;SDS011;9752;54.270;12.470;2022-08-24T02:55:59;14.73;;;11.77;;
19235;SDS011;9752;54.270;12.470;2022-08-24T03:01:01;18.10;;;12.60;;
19235;SDS011;9752;54.270;12.470;2022-08-24T03:06:04;21.43;;;13.13;;
19235;SDS011;9752;54.270;12.470;2022-08-24T03:11:09;17.80;;;12.17;;
19235;SDS011;9752;54.270;12.470;2022-08-24T03:16:11;15.33;;;11.33;;
19235;SDS011;9752;54.270;12.470;2022-08-24T03:21:13;17.37;;;11.90;;
19235;SDS011;9752;54.270;12.470;2022-08-24T03:26:18;16.73;;;11.40;;
19235;SDS011;9752;54.270;12.470;2022-08-24T03:31:20;19.40;;;13.13;;
19235;SDS011;9752;54.270;12.470;2022-08-24T03:36:24;24.00;;;14.07;;
19235;SDS011;9752;54.270;12.470;2022-08-24T03:41:27;22.43;;;13.37;;
19235;SDS011;9752;54.270;12.470;2022-08-24T03:46:29;19.13;;;12.33;;
19235;SDS011;9752;54.270;12.470;2022-08-24T03:51:36;13.83;;;9.23;;
19235;SDS011;9752;54.270;12.470;2022-08-24T03:56:41;13.77;;;9.03;;
19235;SDS011;9752;54.270;12.470;2022-08-24T04:01:43;11.33;;;9.37;;
19235;SDS011;9752;54.270;12.470;2022-08-24T04:06:45;12.37;;;9.80;;
19235;SDS011;9752;54.270;12.470;2022-08-24T04:11:50;12.47;;;9.63;;
19235;SDS011;9752;54.270;12.470;2022-08-24T04:16:54;12.27;;;9.27;;
19235;SDS011;9752;54.270;12.470;2022-08-24T04:22:02;10.93;;;8.20;;
19235;SDS011;9752;54.270;12.470;2022-08-24T04:27:06;9.90;;;7.50;;
19235;SDS011;9752;54.270;12.470;2022-08-24T04:32:07;7.20;;;6.13;;
19235;SDS011;9752;54.270;12.470;2022-08-24T04:37:10;9.03;;;6.67;;
19235;SDS011;9752;54.270;12.470;2022-08-24T04:42:14;14.77;;;8.37;;
19235;SDS011;9752;54.270;12.470;2022-08-24T04:47:18;14.70;;;9.20;;
19235;SDS011;9752;54.270;12.470;2022-08-24T04:52:20;16.27;;;11.73;;
19235;SDS011;9752;54.270;12.470;2022-08-24T04:57:24;11.97;;;9.63;;
19235;SDS011;9752;54.270;12.470;2022-08-24T05:02:26;12.83;;;9.90;;
19235;SDS011;9752;54.270;12.470;2022-08-24T05:07:30;35.17;;;12.77;;
19235;SDS011;9752;54.270;12.470;2022-08-24T05:12:33;14.33;;;8.63;;
19235;SDS011;9752;54.270;12.470;2022-08-24T05:17:38;10.63;;;8.87;;
19235;SDS011;9752;54.270;12.470;2022-08-24T05:22:40;16.77;;;11.27;;
19235;SDS011;9752;54.270;12.470;2022-08-24T05:27:43;18.57;;;12.37;;
19235;SDS011;9752;54.270;12.470;2022-08-24T05:32:46;14.20;;;10.40;;
19235;SDS011;9752;54.270;12.470;2022-08-24T05:37:48;12.60;;;10.13;;
19235;SDS011;9752;54.270;12.470;2022-08-24T05:42:53;11.67;;;8.53;;
19235;SDS011;9752;54.270;12.470;2022-08-24T05:47:55;9.83;;;8.23;;
19235;SDS011;9752;54.270;12.470;2022-08-24T05:53:26;8.70;;;6.33;;
19235;SDS011;9752;54.270;12.470;2022-08-24T05:58:30;11.83;;;7.50;;
19235;SDS011;9752;54.270;12.470;2022-08-24T06:03:35;10.87;;;6.87;;
19235;SDS011;9752;54.270;12.470;2022-08-24T06:08:39;11.23;;;6.33;;
19235;SDS011;9752;54.270;12.470;2022-08-24T06:13:45;7.37;;;5.43;;
19235;SDS011;9752;54.270;12.470;2022-08-24T06:18:47;10.00;;;5.10;;
19235;SDS011;9752;54.270;12.470;2022-08-24T06:23:50;5.27;;;4.10;;
19235;SDS011;9752;54.270;12.470;2022-08-24T06:28:54;8.93;;;4.13;;
19235;SDS011;9752;54.270;12.470;2022-08-24T06:33:56;4.67;;;3.20;;
19235;SDS011;9752;54.270;12.470;2022-08-24T06:38:58;8.67;;;4.20;;
19235;SDS011;9752;54.270;12.470;2022-08-24T06:44:02;4.30;;;3.30;;
19235;SDS011;9752;54.270;12.470;2022-08-24T06:49:18;6.57;;;3.70;;
19235;SDS011;9752;54.270;12.470;2022-08-24T06:54:20;8.17;;;4.33;;
19235;SDS011;9752;54.270;12.470;2022-08-24T06:59:23;7.63;;;3.37;;
19235;SDS011;9752;54.270;12.470;2022-08-24T07:04:28;6.77;;;3.10;;
19235;SDS011;9752;54.270;12.470;2022-08-24T07:10:02;8.40;;;3.37;;
19235;SDS011;9752;54.270;12.470;2022-08-24T07:15:07;4.97;;;3.00;;
19235;SDS011;9752;54.270;12.470;2022-08-24T07:20:10;3.67;;;3.00;;
19235;SDS011;9752;54.270;12.470;2022-08-24T07:25:44;4.17;;;3.03;;
19235;SDS011;9752;54.270;12.470;2022-08-24T07:30:48;5.23;;;3.17;;
19235;SDS011;9752;54.270;12.470;2022-08-24T07:35:50;3.10;;;2.80;;
19235;SDS011;9752;54.270;12.470;2022-08-24T07:40:52;8.10;;;3.37;;
19235;SDS011;9752;54.270;12.470;2022-08-24T07:45:55;5.30;;;3.20;;
19235;SDS011;9752;54.270;12.470;2022-08-24T07:51:05;5.83;;;3.20;;
19235;SDS011;9752;54.270;12.470;2022-08-24T07:56:09;5.83;;;3.30;;
19235;SDS011;9752;54.270;12.470;2022-08-24T08:01:17;6.47;;;3.27;;
19235;SDS011;9752;54.270;12.470;2022-08-24T08:06:21;6.37;;;3.43;;
19235;SDS011;9752;54.270;12.470;2022-08-24T08:11:27;3.87;;;3.40;;
19235;SDS011;9752;54.270;12.470;2022-08-24T08:16:31;3.10;;;2.90;;
19235;SDS011;9752;54.270;12.470;2022-08-24T08:21:33;6.87;;;3.20;;
19235;SDS011;9752;54.270;12.470;2022-08-24T08:26:53;7.27;;;3.57;;
19235;SDS011;9752;54.270;12.470;2022-08-24T08:32:01;5.43;;;3.60;;
19235;SDS011;9752;54.270;12.470;2022-08-24T08:37:03;4.60;;;3.50;;
19235;SDS011;9752;54.270;12.470;2022-08-24T08:48:01;5.50;;;3.03;;
19235;SDS011;9752;54.270;12.470;2022-08-24T08:53:17;4.90;;;3.10;;
19235;SDS011;9752;54.270;12.470;2022-08-24T08:58:37;4.73;;;3.97;;
19235;SDS011;9752;54.270;12.470;2022-08-24T09:09:42;5.30;;;4.00;;
19235;SDS011;9752;54.270;12.470;2022-08-24T09:20:44;8.17;;;4.53;;
19235;SDS011;9752;54.270;12.470;2022-08-24T09:25:57;3.97;;;3.60;;
19235;SDS011;9752;54.270;12.470;2022-08-24T09:31:07;7.07;;;4.13;;
19235;SDS011;9752;54.270;12.470;2022-08-24T09:36:26;5.50;;;4.13;;
19235;SDS011;9752;54.270;12.470;2022-08-24T09:41:39;4.67;;;4.27;;
19235;SDS011;9752;54.270;12.470;2022-08-24T09:47:11;4.20;;;3.80;;
19235;SDS011;9752;54.270;12.470;2022-08-24T09:52:40;7.20;;;4.37;;
19235;SDS011;9752;54.270;12.470;2022-08-24T09:58:12;6.17;;;4.87;;
19235;SDS011;9752;54.270;12.470;2022-08-24T10:03:23;6.93;;;4.90;;
19235;SDS011;9752;54.270;12.470;2022-08-24T10:08:43;7.07;;;4.93;;
19235;SDS011;9752;54.270;12.470;2022-08-24T10:14:02;6.17;;;5.77;;
19235;SDS011;9752;54.270;12.470;2022-08-24T10:19:23;6.63;;;5.80;;
19235;SDS011;9752;54.270;12.470;2022-08-24T10:24:52;6.63;;;5.87;;
19235;SDS011;9752;54.270;12.470;2022-08-24T10:35:57;8.10;;;7.43;;
19235;SDS011;9752;54.270;12.470;2022-08-24T10:41:33;9.70;;;8.80;;
19235;SDS011;9752;54.270;12.470;2022-08-24T10:46:58;8.13;;;7.53;;
19235;SDS011;9752;54.270;12.470;2022-08-24T10:52:15;9.27;;;8.47;;
19235;SDS011;9752;54.270;12.470;2022-08-24T10:57:54;9.50;;;8.70;;
19235;SDS011;9752;54.270;12.470;2022-08-24T11:03:08;8.97;;;8.17;;
19235;SDS011;9752;54.270;12.470;2022-08-24T11:08:16;8.33;;;7.63;;
19235;SDS011;9752;54.270;12.470;2022-08-24T11:13:22;8.60;;;7.77;;
19235;SDS011;9752;54.270;12.470;2022-08-24T11:18:28;8.30;;;7.50;;
19235;SDS011;9752;54.270;12.470;2022-08-24T11:23:48;7.67;;;7.10;;
19235;SDS011;9752;54.270;12.470;2022-08-24T11:28:53;7.67;;;6.87;;
19235;SDS011;9752;54.270;12.470;2022-08-24T11:34:02;7.00;;;6.60;;
19235;SDS011;9752;54.270;12.470;2022-08-24T11:39:11;10.23;;;7.13;;
19235;SDS011;9752;54.270;12.470;2022-08-24T11:44:21;8.33;;;7.73;;
19235;SDS011;9752;54.270;12.470;2022-08-24T11:49:39;9.40;;;7.70;;
19235;SDS011;9752;54.270;12.470;2022-08-24T11:54:49;9.10;;;8.60;;
19235;SDS011;9752;54.270;12.470;2022-08-24T12:00:00;8.27;;;7.57;;
19235;SDS011;9752;54.270;12.470;2022-08-24T12:05:11;8.63;;;7.67;;
19235;SDS011;9752;54.270;12.470;2022-08-24T12:10:26;8.83;;;7.80;;
19235;SDS011;9752;54.270;12.470;2022-08-24T12:15:41;7.47;;;6.87;;
19235;SDS011;9752;54.270;12.470;2022-08-24T12:20:47;7.00;;;6.50;;
19235;SDS011;9752;54.270;12.470;2022-08-24T12:25:51;7.60;;;7.20;;
19235;SDS011;9752;54.270;12.470;2022-08-24T12:31:06;8.10;;;7.50;;
19235;SDS011;9752;54.270;12.470;2022-08-24T12:36:16;10.33;;;7.50;;
19235;SDS011;9752;54.270;12.470;2022-08-24T12:41:26;7.93;;;7.43;;
19235;SDS011;9752;54.270;12.470;2022-08-24T12:46:34;8.40;;;7.70;;
19235;SDS011;9752;54.270;12.470;2022-08-24T12:51:40;7.73;;;7.13;;
19235;SDS011;9752;54.270;12.470;2022-08-24T12:57:04;8.20;;;7.60;;
19235;SDS011;9752;54.270;12.470;2022-08-24T13:02:27;8.20;;;7.67;;
19235;SDS011;9752;54.270;12.470;2022-08-24T13:07:37;7.23;;;6.73;;
19235;SDS011;9752;54.270;12.470;2022-08-24T13:12:51;8.20;;;7.60;;
19235;SDS011;9752;54.270;12.470;2022-08-24T13:17:58;8.93;;;8.03;;
19235;SDS011;9752;54.270;12.470;2022-08-24T13:23:20;8.50;;;7.63;;
19235;SDS011;9752;54.270;12.470;2022-08-24T13:28:30;8.67;;;7.83;;
19235;SDS011;9752;54.270;12.470;2022-08-24T13:33:41;8.23;;;7.73;;
19235;SDS011;9752;54.270;12.470;2022-08-24T13:39:03;9.10;;;8.30;;
19235;SDS011;9752;54.270;12.470;2022-08-24T13:44:14;8.67;;;8.00;;
19235;SDS011;9752;54.270;12.470;2022-08-24T13:49:30;9.03;;;8.33;;
19235;SDS011;9752;54.270;12.470;2022-08-24T13:54:44;9.40;;;8.53;;
19235;SDS011;9752;54.270;12.470;2022-08-24T14:00:08;8.60;;;8.03;;
19235;SDS011;9752;54.270;12.470;2022-08-24T14:05:36;8.13;;;7.40;;
19235;SDS011;9752;54.270;12.470;2022-08-24T14:10:48;8.37;;;7.77;;
19235;SDS011;9752;54.270;12.470;2022-08-24T14:15:58;8.30;;;7.70;;
19235;SDS011;9752;54.270;12.470;2022-08-24T14:21:21;8.63;;;7.83;;
19235;SDS011;9752;54.270;12.470;2022-08-24T14:37:50;7.90;;;7.40;;
19235;SDS011;9752;54.270;12.470;2022-08-24T14:43:04;7.93;;;7.17;;
19235;SDS011;9752;54.270;12.470;2022-08-24T14:48:24;8.47;;;7.80;;
19235;SDS011;9752;54.270;12.470;2022-08-24T14:53:43;9.90;;;9.10;;
19235;SDS011;9752;54.270;12.470;2022-08-24T14:58:56;10.55;;;9.93;;
19235;SDS011;9752;54.270;12.470;2022-08-24T15:04:13;11.63;;;10.68;;
19235;SDS011;9752;54.270;12.470;2022-08-24T15:09:29;10.88;;;10.27;;
19235;SDS011;9752;54.270;12.470;2022-08-24T15:14:36;10.80;;;10.27;;
19235;SDS011;9752;54.270;12.470;2022-08-24T15:19:44;12.32;;;11.05;;
19235;SDS011;9752;54.270;12.470;2022-08-24T15:24:55;12.15;;;11.45;;
19235;SDS011;9752;54.270;12.470;2022-08-24T15:30:04;11.90;;;11.20;;
19235;SDS011;9752;54.270;12.470;2022-08-24T15:35:20;12.25;;;11.35;;
19235;SDS011;9752;54.270;12.470;2022-08-24T15:40:26;12.30;;;11.50;;
19235;SDS011;9752;54.270;12.470;2022-08-24T15:45:30;12.80;;;11.80;;
19235;SDS011;9752;54.270;12.470;2022-08-24T15:50:34;12.02;;;11.32;;
19235;SDS011;9752;54.270;12.470;2022-08-24T15:55:43;11.68;;;11.05;;
19235;SDS011;9752;54.270;12.470;2022-08-24T16:00:47;11.68;;;11.07;;
19235;SDS011;9752;54.270;12.470;2022-08-24T16:06:15;12.50;;;11.50;;
19235;SDS011;9752;54.270;12.470;2022-08-24T16:11:31;12.68;;;11.82;;
19235;SDS011;9752;54.270;12.470;2022-08-24T16:16:38;12.38;;;11.50;;
19235;SDS011;9752;54.270;12.470;2022-08-24T16:21:43;12.93;;;11.77;;
19235;SDS011;9752;54.270;12.470;2022-08-24T16:26:55;12.40;;;11.73;;
19235;SDS011;9752;54.270;12.470;2022-08-24T16:32:04;11.80;;;11.07;;
19235;SDS011;9752;54.270;12.470;2022-08-24T16:37:10;11.73;;;11.10;;
19235;SDS011;9752;54.270;12.470;2022-08-24T16:42:15;11.75;;;10.95;;
19235;SDS011;9752;54.270;12.470;2022-08-24T16:47:22;11.65;;;10.95;;
19235;SDS011;9752;54.270;12.470;2022-08-24T16:52:25;12.20;;;11.30;;
19235;SDS011;9752;54.270;12.470;2022-08-24T16:57:29;12.05;;;11.25;;
19235;SDS011;9752;54.270;12.470;2022-08-24T17:02:35;12.27;;;11.45;;
19235;SDS011;9752;54.270;12.470;2022-08-24T17:07:37;12.30;;;11.50;;
19235;SDS011;9752;54.270;12.470;2022-08-24T17:12:40;11.20;;;10.63;;
19235;SDS011;9752;54.270;12.470;2022-08-24T17:17:43;11.77;;;10.85;;
19235;SDS011;9752;54.270;12.470;2022-08-24T17:22:53;10.50;;;9.93;;
19235;SDS011;9752;54.270;12.470;2022-08-24T17:27:56;12.05;;;11.35;;
19235;SDS011;9752;54.270;12.470;2022-08-24T17:32:59;11.87;;;11.17;;
19235;SDS011;9752;54.270;12.470;2022-08-24T17:38:01;11.70;;;11.00;;
19235;SDS011;9752;54.270;12.470;2022-08-24T17:43:05;12.13;;;11.43;;
19235;SDS011;9752;54.270;12.470;2022-08-24T17:48:07;10.03;;;9.33;;
19235;SDS011;9752;54.270;12.470;2022-08-24T17:53:08;8.53;;;7.70;;
19235;SDS011;9752;54.270;12.470;2022-08-24T17:58:12;7.30;;;6.70;;
19235;SDS011;9752;54.270;12.470;2022-08-24T18:03:15;6.50;;;5.53;;
19235;SDS011;9752;54.270;12.470;2022-08-24T18:08:17;6.00;;;5.60;;
19235;SDS011;9752;54.270;12.470;2022-08-24T18:13:20;5.10;;;4.60;;
19235;SDS011;9752;54.270;12.470;2022-08-24T18:18:22;4.43;;;4.10;;
19235;SDS011;9752;54.270;12.470;2022-08-24T18:23:23;7.00;;;4.67;;
19235;SDS011;9752;54.270;12.470;2022-08-24T18:28:27;6.87;;;4.47;;
19235;SDS011;9752;54.270;12.470;2022-08-24T18:33:28;6.03;;;3.37;;
19235;SDS011;9752;54.270;12.470;2022-08-24T18:38:30;5.23;;;4.10;;
19235;SDS011;9752;54.270;12.470;2022-08-24T18:43:34;5.70;;;4.00;;
19235;SDS011;9752;54.270;12.470;2022-08-24T18:48:36;4.53;;;3.27;;
19235;SDS011;9752;54.270;12.470;2022-08-24T18:53:38;8.43;;;3.97;;
19235;SDS011;9752;54.270;12.470;2022-08-24T18:58:42;6.53;;;4.10;;
19235;SDS011;9752;54.270;12.470;2022-08-24T19:03:43;5.43;;;3.73;;
19235;SDS011;9752;54.270;12.470;2022-08-24T19:08:45;8.37;;;4.10;;
19235;SDS011;9752;54.270;12.470;2022-08-24T19:13:48;8.47;;;4.20;;
19235;SDS011;9752;54.270;12.470;2022-08-24T19:18:50;8.17;;;3.90;;
19235;SDS011;9752;54.270;12.470;2022-08-24T19:23:52;11.17;;;4.80;;
19235;SDS011;9752;54.270;12.470;2022-08-24T19:28:57;5.47;;;3.87;;
19235;SDS011;9752;54.270;12.470;2022-08-24T19:33:59;8.93;;;4.83;;
19235;SDS011;9752;54.270;12.470;2022-08-24T19:39:02;6.80;;;4.50;;
19235;SDS011;9752;54.270;12.470;2022-08-24T19:44:06;7.77;;;4.50;;
19235;SDS011;9752;54.270;12.470;2022-08-24T19:49:25;7.07;;;4.67;;
19235;SDS011;9752;54.270;12.470;2022-08-24T19:54:28;6.23;;;5.37;;
19235;SDS011;9752;54.270;12.470;2022-08-24T19:59:34;9.53;;;4.60;;
19235;SDS011;9752;54.270;12.470;2022-08-24T20:04:42;7.87;;;5.40;;
19235;SDS011;9752;54.270;12.470;2022-08-24T20:09:44;7.60;;;5.20;;
19235;SDS011;9752;54.270;12.470;2022-08-24T20:14:47;8.50;;;5.63;;
19235;SDS011;9752;54.270;12.470;2022-08-24T20:19:49;7.73;;;5.40;;
19235;SDS011;9752;54.270;12.470;2022-08-24T20:24:51;7.43;;;5.10;;
19235;SDS011;9752;54.270;12.470;2022-08-24T20:29:55;8.93;;;5.73;;
19235;SDS011;9752;54.270;12.470;2022-08-24T20:34:58;7.03;;;5.70;;
19235;SDS011;9752;54.270;12.470;2022-08-24T20:40:00;10.37;;;7.37;;
19235;SDS011;9752;54.270;12.470;2022-08-24T20:45:05;9.80;;;6.67;;
19235;SDS011;9752;54.270;12.470;2022-08-24T20:50:08;9.10;;;7.10;;
19235;SDS011;9752;54.270;12.470;2022-08-24T20:55:10;12.93;;;7.57;;
19235;SDS011;9752;54.270;12.470;2022-08-24T21:00:15;11.40;;;8.67;;
19235;SDS011;9752;54.270;12.470;2022-08-24T21:05:18;10.43;;;7.97;;
19235;SDS011;9752;54.270;12.470;2022-08-24T21:10:21;9.77;;;7.67;;
19235;SDS011;9752;54.270;12.470;2022-08-24T21:15:25;9.60;;;8.60;;
19235;SDS011;9752;54.270;12.470;2022-08-24T21:20:27;12.03;;;8.07;;
19235;SDS011;9752;54.270;12.470;2022-08-24T21:25:28;11.27;;;7.90;;
19235;SDS011;9752;54.270;12.470;2022-08-24T21:30:32;11.17;;;8.27;;
19235;SDS011;9752;54.270;12.470;2022-08-24T21:35:34;10.10;;;8.90;;
19235;SDS011;9752;54.270;12.470;2022-08-24T21:40:36;14.73;;;8.30;;
19235;SDS011;9752;54.270;12.470;2022-08-24T21:45:39;12.90;;;8.07;;
19235;SDS011;9752;54.270;12.470;2022-08-24T21:50:41;12.83;;;8.60;;
19235;SDS011;9752;54.270;12.470;2022-08-24T21:55:43;12.63;;;8.13;;
19235;SDS011;9752;54.270;12.470;2022-08-24T22:00:47;10.67;;;8.90;;
19235;SDS011;9752;54.270;12.470;2022-08-24T22:05:48;9.70;;;8.70;;
19235;SDS011;9752;54.270;12.470;2022-08-24T22:10:50;12.67;;;9.50;;
19235;SDS011;9752;54.270;12.470;2022-08-24T22:15:53;15.30;;;10.23;;
19235;SDS011;9752;54.270;12.470;2022-08-24T22:20:55;16.90;;;11.03;;
19235;SDS011;9752;54.270;12.470;2022-08-24T22:25:57;15.30;;;11.73;;
19235;SDS011;9752;54.270;12.470;2022-08-24T22:31:00;13.77;;;10.90;;
19235;SDS011;9752;54.270;12.470;2022-08-24T22:36:02;17.13;;;12.53;;
19235;SDS011;9752;54.270;12.470;2022-08-24T22:41:09;17.67;;;12.90;;
19235;SDS011;9752;54.270;12.470;2022-08-24T22:46:12;16.80;;;12.17;;
19235;SDS011;9752;54.270;12.470;2022-08-24T22:51:14;14.53;;;11.00;;
19235;SDS011;9752;54.270;12.470;2022-08-24T22:56:16;18.57;;;13.27;;
19235;SDS011;9752;54.270;12.470;2022-08-24T23:01:23;19.30;;;12.50;;
19235;SDS011;9752;54.270;12.470;2022-08-24T23:06:26;18.87;;;14.50;;
19235;SDS011;9752;54.270;12.470;2022-08-24T23:11:28;17.03;;;13.20;;
19235;SDS011;9752;54.270;12.470;2022-08-24T23:16:34;15.10;;;11.93;;
19235;SDS011;9752;54.270;12.470;2022-08-24T23:21:37;14.20;;;12.67;;
19235;SDS011;9752;54.270;12.470;2022-08-24T23:26:39;18.30;;;13.60;;
19235;SDS011;9752;54.270;12.470;2022-08-24T23:31:43;23.47;;;16.87;;
19235;SDS011;9752;54.270;12.470;2022-08-24T23:36:46;19.60;;;15.87;;
19235;SDS011;9752;54.270;12.470;2022-08-24T23:41:49;25.77;;;18.90;;
19235;SDS011;9752;54.270;12.470;2022-08-24T23:46:54;23.37;;;18.23;;
19235;SDS011;9752;54.270;12.470;2022-08-24T23:51:57;33.40;;;21.80;;
19235;SDS011;9752;54.270;12.470;2022-08-24T23:56:59;31.90;;;24.27;;
